Time;durP1;ratioP1;P1;durP2;ratioP2;P2;SDS_P1;SDS_P2;PMS_P1;PMS_P2;Temp;Humidity;BMP_temperature;BMP_pressure;BME280_temperature;BME280_humidity;BME280_pressure;Samples;Min_cycle;Max_cycle;Signal;HPM_P1;HPM_P2
2021/03/31 00:01:16;;;;;;;34.65;20.92;;;231.30;2252.80;;;;;;5007472;28;20026;-83
2021/03/31 00:03:42;;;;;;;31.38;19.08;;;231.30;2252.80;;;;;;5004182;28;20038;-76
2021/03/31 00:06:07;;;;;;;26.70;16.45;;;256.00;2252.80;;;;;;5002484;28;20479;-88
2021/03/31 00:08:33;;;;;;;25.70;14.98;;;256.00;2252.80;;;;;;5003597;28;20109;-88
2021/03/31 00:11:00;;;;;;;23.20;14.80;;;256.00;2252.80;;;;;;4999386;28;20021;-70
2021/03/31 00:13:26;;;;;;;18.13;12.00;;;256.00;2252.80;;;;;;4998811;28;20046;-73
2021/03/31 00:15:54;;;;;;;22.45;12.27;;;256.00;2252.80;;;;;;4993588;28;20030;-69
2021/03/31 00:18:21;;;;;;;17.63;11.65;;;256.00;2252.80;;;;;;5000315;28;20034;-72
2021/03/31 00:20:48;;;;;;;21.02;11.32;;;256.00;2252.80;;;;;;5013745;28;20411;-88
2021/03/31 00:23:16;;;;;;;21.15;11.32;;;256.00;2252.80;;;;;;5007756;28;20025;-73
2021/03/31 00:25:42;;;;;;;20.15;10.20;;;256.00;2252.80;;;;;;4998420;28;20013;-72
2021/03/31 00:28:09;;;;;;;18.48;9.48;;;256.00;2252.80;;;;;;4993458;28;20434;-88
2021/03/31 00:30:36;;;;;;;17.55;9.32;;;256.00;2252.80;;;;;;4998469;28;20030;-75
2021/03/31 00:33:03;;;;;;;19.00;9.13;;;256.00;2252.80;;;;;;4998385;28;20057;-78
2021/03/31 00:35:28;;;;;;;16.52;9.65;;;256.00;2252.80;;;;;;5002290;28;20026;-78
2021/03/31 00:37:54;;;;;;;16.92;9.50;;;256.00;2252.80;;;;;;4994498;28;20033;-78
2021/03/31 00:40:24;;;;;;;18.02;9.10;;;256.00;2252.80;;;;;;4995608;28;20026;-79
2021/03/31 00:42:50;;;;;;;17.30;8.80;;;256.00;2252.80;;;;;;5000873;28;20026;-72
2021/03/31 00:45:16;;;;;;;13.85;8.75;;;256.00;2252.80;;;;;;5003718;28;20038;-79
2021/03/31 00:47:42;;;;;;;16.65;9.45;;;256.10;2252.80;;;;;;4992996;28;20033;-71
2021/03/31 00:50:12;;;;;;;16.45;9.23;;;256.00;2252.80;;;;;;5004094;28;20029;-80
2021/03/31 00:52:40;;;;;;;17.25;8.52;;;256.00;2252.80;;;;;;5013939;28;20040;-83
2021/03/31 00:55:07;;;;;;;18.45;8.52;;;256.00;2252.80;;;;;;5015923;28;20060;-76
2021/03/31 00:57:34;;;;;;;16.27;8.60;;;256.00;2252.80;;;;;;4999711;28;20403;-79
2021/03/31 01:00:02;;;;;;;18.58;8.68;;;256.00;2252.80;;;;;;4993153;28;20428;-73
2021/03/31 01:02:27;;;;;;;19.13;8.45;;;256.00;2252.80;;;;;;5007922;28;20026;-73
2021/03/31 01:04:53;;;;;;;16.45;8.90;;;256.00;2252.80;;;;;;4995914;28;20034;-75
2021/03/31 01:07:19;;;;;;;16.60;8.77;;;256.00;2252.80;;;;;;4992826;28;20563;-82
2021/03/31 01:09:45;;;;;;;14.35;8.45;;;256.10;2252.80;;;;;;5001259;28;20369;-87
2021/03/31 01:12:16;;;;;;;17.67;8.70;;;256.00;2252.80;;;;;;5003757;28;20033;-76
2021/03/31 01:15:09;;;;;;;16.52;9.23;;;256.00;2252.80;;;;;;5005484;28;20048;-72
2021/03/31 01:17:45;;;;;;;19.52;9.88;;;256.00;2252.80;;;;;;4992948;28;20021;-75
2021/03/31 01:20:29;;;;;;;16.92;8.93;;;231.30;2252.80;;;;;;4996594;28;20172;-81
2021/03/31 01:23:13;;;;;;;19.38;9.15;;;231.20;2252.80;;;;;;5018694;28;20109;-72
2021/03/31 01:25:47;;;;;;;14.90;9.07;;;231.20;2252.80;;;;;;4984365;28;20034;-72
2021/03/31 01:28:24;;;;;;;15.38;9.55;;;231.20;2252.80;;;;;;5005426;28;20467;-88
2021/03/31 01:31:16;;;;;;;15.20;9.57;;;231.20;2252.80;;;;;;5000259;28;20049;-74
2021/03/31 01:33:46;;;;;;;16.05;9.45;;;231.20;2252.80;;;;;;5018475;28;20073;-75
2021/03/31 01:36:16;;;;;;;18.23;9.73;;;231.20;2252.80;;;;;;5012596;28;20053;-84
2021/03/31 01:38:46;;;;;;;16.27;9.73;;;231.20;2252.80;;;;;;4996413;28;20030;-89
2021/03/31 01:41:15;;;;;;;17.67;9.75;;;231.20;2252.80;;;;;;5013463;28;20482;-89
2021/03/31 01:43:41;;;;;;;17.83;10.02;;;231.20;2252.80;;;;;;5015668;28;20025;-87
2021/03/31 01:46:07;;;;;;;23.23;9.80;;;231.20;2252.80;;;;;;5007745;28;20041;-78
2021/03/31 01:48:33;;;;;;;17.95;9.88;;;231.20;2252.80;;;;;;4996313;28;20029;-88
2021/03/31 01:51:06;;;;;;;18.33;10.20;;;231.30;2252.80;;;;;;4996320;28;20026;-83
2021/03/31 01:53:33;;;;;;;17.33;10.00;;;256.00;2252.80;;;;;;5008593;28;20395;-73
2021/03/31 01:56:00;;;;;;;18.33;9.82;;;256.10;2252.80;;;;;;5016284;28;20053;-89
2021/03/31 01:58:27;;;;;;;17.92;10.73;;;256.10;2252.80;;;;;;4996104;28;20046;-72
2021/03/31 02:00:54;;;;;;;16.70;10.00;;;256.20;2252.80;;;;;;5004071;28;20034;-73
2021/03/31 02:03:22;;;;;;;20.77;11.15;;;256.30;2252.80;;;;;;5007250;28;20084;-74
2021/03/31 02:05:48;;;;;;;19.85;10.05;;;256.40;2252.80;;;;;;5010074;28;20041;-72
2021/03/31 02:08:15;;;;;;;17.63;10.23;;;256.50;2252.80;;;;;;4991010;28;20026;-72
2021/03/31 02:10:43;;;;;;;19.13;10.88;;;256.50;2252.80;;;;;;4999509;28;20084;-80
2021/03/31 02:13:11;;;;;;;17.25;9.68;;;256.60;2252.80;;;;;;5000631;28;20030;-73
2021/03/31 02:15:39;;;;;;;17.00;9.65;;;256.70;2252.80;;;;;;5002067;28;20038;-72
2021/03/31 02:18:07;;;;;;;17.83;10.27;;;256.70;2252.80;;;;;;5002259;28;20080;-72
2021/03/31 02:20:34;;;;;;;20.27;10.45;;;256.80;2252.80;;;;;;5001590;28;20474;-88
2021/03/31 02:23:02;;;;;;;20.75;10.07;;;256.90;2252.80;;;;;;5010500;28;20033;-77
2021/03/31 02:25:27;;;;;;;16.75;9.68;;;281.60;2278.40;;;;;;5002601;28;20241;-76
2021/03/31 02:27:53;;;;;;;19.25;10.20;;;281.60;2278.40;;;;;;5022869;28;20036;-85
2021/03/31 02:30:22;;;;;;;16.92;9.30;;;281.60;2278.40;;;;;;5002695;28;20038;-73
2021/03/31 02:32:51;;;;;;;19.08;9.30;;;281.70;2278.40;;;;;;5000158;28;20515;-85
2021/03/31 02:35:21;;;;;;;18.25;9.27;;;281.80;2278.40;;;;;;4995269;28;20026;-80
2021/03/31 02:37:51;;;;;;;17.77;9.73;;;281.90;2278.40;;;;;;5004333;28;20525;-73
2021/03/31 02:40:18;;;;;;;21.10;9.88;;;281.90;2278.40;;;;;;5005110;28;20038;-72
2021/03/31 02:42:47;;;;;;;16.23;9.25;;;281.90;2278.40;;;;;;5001152;28;20108;-71
2021/03/31 02:45:18;;;;;;;14.73;9.07;;;281.90;2278.40;;;;;;5018176;28;20104;-76
2021/03/31 02:47:45;;;;;;;17.45;9.95;;;282.00;2278.40;;;;;;5020370;28;20033;-85
2021/03/31 02:50:17;;;;;;;20.98;10.35;;;282.00;2278.40;;;;;;5016962;28;20037;-69
2021/03/31 02:52:48;;;;;;;21.10;10.32;;;282.10;2278.40;;;;;;5021701;28;20065;-85
2021/03/31 02:55:15;;;;;;;24.45;11.13;;;282.10;2278.40;;;;;;5034567;28;20037;-72
2021/03/31 02:57:43;;;;;;;19.55;10.35;;;282.10;2278.40;;;;;;5027347;28;20105;-71
2021/03/31 03:00:11;;;;;;;20.30;10.60;;;282.10;2278.40;;;;;;5020288;28;20452;-72
2021/03/31 03:02:45;;;;;;;16.60;10.07;;;282.10;2278.40;;;;;;5013991;28;20037;-69
2021/03/31 03:05:13;;;;;;;17.48;10.38;;;282.10;2278.40;;;;;;5014737;28;20030;-74
2021/03/31 03:07:39;;;;;;;17.20;10.20;;;282.10;2278.40;;;;;;5027286;28;20029;-69
2021/03/31 03:10:07;;;;;;;21.60;10.90;;;282.00;2278.40;;;;;;5025003;28;20032;-69
2021/03/31 03:12:37;;;;;;;23.13;11.35;;;282.10;2278.40;;;;;;5026892;28;20026;-77
2021/03/31 03:15:04;;;;;;;25.13;11.70;;;282.10;2278.40;;;;;;5033686;28;20108;-71
2021/03/31 03:17:30;;;;;;;24.05;11.50;;;282.10;2278.40;;;;;;4999411;28;20038;-72
2021/03/31 03:19:56;;;;;;;17.13;10.50;;;282.10;2278.40;;;;;;5026392;28;20026;-68
2021/03/31 03:22:22;;;;;;;19.63;11.32;;;282.10;2278.40;;;;;;5029404;28;20026;-85
2021/03/31 03:24:51;;;;;;;20.38;11.40;;;282.10;2278.40;;;;;;5020439;28;20463;-74
2021/03/31 03:27:19;;;;;;;19.58;11.02;;;282.20;2278.40;;;;;;5010307;28;20041;-77
2021/03/31 03:29:46;;;;;;;21.55;11.02;;;282.20;2278.40;;;;;;5025231;28;20034;-71
2021/03/31 03:32:13;;;;;;;20.67;11.65;;;282.20;2278.40;;;;;;5013553;28;20538;-72
2021/03/31 03:34:40;;;;;;;20.60;11.02;;;282.20;2278.40;;;;;;5024840;28;20175;-70
2021/03/31 03:37:06;;;;;;;19.77;11.25;;;282.20;2278.40;;;;;;5030231;28;20048;-68
2021/03/31 03:39:32;;;;;;;18.20;10.82;;;282.20;2278.40;;;;;;5022874;28;20100;-70
2021/03/31 03:41:58;;;;;;;19.40;11.65;;;282.20;2278.40;;;;;;5020133;28;20018;-70
2021/03/31 03:44:24;;;;;;;21.83;12.07;;;282.30;2278.40;;;;;;5032737;28;20415;-72
2021/03/31 03:46:54;;;;;;;19.05;10.95;;;282.20;2278.40;;;;;;5019621;28;20085;-70
2021/03/31 03:49:20;;;;;;;24.13;11.73;;;282.20;2278.40;;;;;;5032827;28;20021;-71
2021/03/31 03:51:46;;;;;;;20.38;11.25;;;282.10;2278.40;;;;;;5018839;28;20431;-84
2021/03/31 03:54:11;;;;;;;21.75;11.85;;;282.20;2278.40;;;;;;5016787;28;20034;-69
2021/03/31 03:56:38;;;;;;;21.25;11.27;;;282.30;2278.40;;;;;;5030752;28;20028;-78
2021/03/31 03:59:24;;;;;;;20.77;11.40;;;282.20;2278.40;;;;;;5031808;28;20057;-68
2021/03/31 04:01:51;;;;;;;20.75;11.23;;;282.20;2278.40;;;;;;5011549;28;20124;-69
2021/03/31 04:04:18;;;;;;;26.70;11.55;;;282.20;2278.40;;;;;;5014464;28;20033;-73
2021/03/31 04:06:44;;;;;;;19.58;10.40;;;282.20;2278.40;;;;;;4998190;28;20032;-86
2021/03/31 04:09:10;;;;;;;19.60;10.68;;;282.20;2278.40;;;;;;5013152;28;20030;-71
2021/03/31 04:11:38;;;;;;;21.77;11.35;;;282.30;2278.40;;;;;;5012876;28;20049;-70
2021/03/31 04:14:05;;;;;;;17.92;11.48;;;282.30;2278.40;;;;;;5010086;28;20147;-82
2021/03/31 04:16:34;;;;;;;19.88;10.15;;;282.30;2278.40;;;;;;5013328;28;20028;-73
2021/03/31 04:19:14;;;;;;;18.77;11.20;;;282.30;2278.40;;;;;;5004591;28;20109;-72
2021/03/31 04:21:41;;;;;;;22.23;11.50;;;282.30;2278.40;;;;;;5010659;28;20053;-70
2021/03/31 04:24:10;;;;;;;19.98;11.70;;;282.30;2278.40;;;;;;5012891;28;20038;-70
2021/03/31 04:26:37;;;;;;;22.20;11.95;;;282.30;2278.40;;;;;;5012623;28;20072;-77
2021/03/31 04:29:05;;;;;;;27.73;11.65;;;282.30;2278.40;;;;;;5011564;28;20051;-71
2021/03/31 04:31:32;;;;;;;31.35;12.15;;;282.30;2278.40;;;;;;5010280;28;20353;-72
2021/03/31 04:33:58;;;;;;;26.98;11.98;;;282.30;2278.40;;;;;;5012660;28;20042;-78
2021/03/31 04:36:23;;;;;;;27.83;11.82;;;282.40;2278.40;;;;;;5012273;28;20084;-72
2021/03/31 04:38:50;;;;;;;24.38;11.27;;;282.40;2278.40;;;;;;5008503;28;20026;-79
2021/03/31 04:41:16;;;;;;;20.10;11.23;;;282.40;2278.40;;;;;;5011586;28;20085;-81
2021/03/31 04:43:43;;;;;;;23.95;12.73;;;282.50;2278.40;;;;;;5014941;28;20036;-71
2021/03/31 04:46:09;;;;;;;26.83;11.13;;;282.50;2278.40;;;;;;5012874;28;20026;-82
2021/03/31 04:48:39;;;;;;;22.92;12.48;;;307.20;2304.00;;;;;;5010328;28;20088;-73
2021/03/31 04:51:06;;;;;;;23.13;12.45;;;307.20;2304.00;;;;;;5008354;28;20112;-76
2021/03/31 04:53:33;;;;;;;26.85;12.23;;;307.20;2304.00;;;;;;5013027;28;20026;-67
2021/03/31 04:55:59;;;;;;;30.15;12.95;;;307.20;2304.00;;;;;;5010408;28;20032;-66
2021/03/31 04:58:25;;;;;;;25.55;12.95;;;307.30;2304.00;;;;;;5009656;28;20116;-69
2021/03/31 05:00:51;;;;;;;25.02;12.18;;;307.40;2304.00;;;;;;5010694;28;20549;-70
2021/03/31 05:03:17;;;;;;;33.33;13.02;;;307.40;2304.00;;;;;;5009939;28;20105;-72
2021/03/31 05:05:43;;;;;;;27.25;13.43;;;307.50;2304.00;;;;;;5011378;28;20029;-73
2021/03/31 05:08:08;;;;;;;34.20;15.50;;;307.60;2304.00;;;;;;5010219;28;20050;-67
2021/03/31 05:10:34;;;;;;;32.47;16.85;;;307.60;2304.00;;;;;;5012484;28;20057;-67
2021/03/31 05:13:00;;;;;;;37.80;16.55;;;307.70;2304.00;;;;;;5013005;28;20589;-92
2021/03/31 05:15:26;;;;;;;33.75;15.82;;;307.80;2304.00;;;;;;5012702;28;20123;-79
2021/03/31 05:17:52;;;;;;;32.85;15.23;;;307.90;2304.00;;;;;;5013042;28;20036;-92
2021/03/31 05:20:18;;;;;;;26.63;14.25;;;308.00;2304.00;;;;;;5013079;28;20025;-68
2021/03/31 05:22:44;;;;;;;27.20;14.60;;;332.80;2329.60;;;;;;5012391;28;20114;-68
2021/03/31 05:25:11;;;;;;;41.63;14.88;;;332.80;2329.60;;;;;;5011662;28;20116;-72
2021/03/31 05:27:37;;;;;;;34.20;16.58;;;332.90;2329.60;;;;;;5011927;28;20141;-70
2021/03/31 05:30:08;;;;;;;46.78;18.50;;;333.00;2329.60;;;;;;4993657;28;20509;-68
2021/03/31 05:32:34;;;;;;;41.03;17.88;;;333.10;2329.60;;;;;;5009318;28;20052;-68
2021/03/31 05:35:00;;;;;;;36.42;16.10;;;333.30;2329.60;;;;;;5008956;28;20037;-67
2021/03/31 05:37:27;;;;;;;61.00;25.05;;;333.30;2329.60;;;;;;5010942;28;20037;-77
2021/03/31 05:39:53;;;;;;;50.58;22.17;;;333.30;2329.60;;;;;;5012399;28;20510;-69
2021/03/31 05:42:19;;;;;;;40.67;20.65;;;333.30;2329.60;;;;;;5013038;28;20026;-69
2021/03/31 05:44:45;;;;;;;43.38;20.52;;;333.40;2329.60;;;;;;5012117;28;20030;-68
2021/03/31 05:47:18;;;;;;;33.40;18.05;;;333.50;2329.60;;;;;;5012050;28;20392;-67
2021/03/31 05:49:45;;;;;;;40.95;23.50;;;333.50;2329.60;;;;;;5012242;28;20034;-84
2021/03/31 05:52:11;;;;;;;27.70;15.43;;;358.40;2329.60;;;;;;5011558;28;20033;-82
2021/03/31 05:54:38;;;;;;;39.95;13.38;;;333.70;2329.60;;;;;;4995266;28;20042;-67
2021/03/31 05:57:07;;;;;;;25.77;13.68;;;333.60;2304.00;;;;;;5015427;28;20034;-72
2021/03/31 05:59:33;;;;;;;24.83;14.00;;;333.60;2329.60;;;;;;5012934;28;20049;-71
2021/03/31 06:01:59;;;;;;;25.80;13.43;;;333.60;2329.60;;;;;;5010605;28;20022;-70
2021/03/31 06:04:25;;;;;;;27.60;15.13;;;333.70;2329.60;;;;;;5018678;28;20076;-69
2021/03/31 06:06:51;;;;;;;27.95;16.25;;;333.70;2278.40;;;;;;5024693;28;20034;-71
2021/03/31 06:09:16;;;;;;;27.00;16.80;;;358.40;2329.60;;;;;;5033217;28;20033;-69
2021/03/31 06:11:51;;;;;;;26.40;15.65;;;333.70;2278.40;;;;;;5014167;28;20033;-74
2021/03/31 06:14:38;;;;;;;25.25;14.38;;;333.50;2329.60;;;;;;5011263;28;20385;-69
2021/03/31 06:17:13;;;;;;;23.65;15.25;;;333.40;2329.60;;;;;;5014093;28;20533;-70
2021/03/31 06:19:40;;;;;;;28.83;17.95;;;333.50;2329.60;;;;;;5016349;28;20030;-70
2021/03/31 06:24:44;;;;;;;43.53;22.07;;;333.60;2329.60;;;;;;5015902;28;20468;-69
2021/03/31 06:27:11;;;;;;;35.40;21.10;;;333.70;2329.60;;;;;;5001953;28;20029;-71
2021/03/31 06:29:43;;;;;;;39.20;22.17;;;358.40;2329.60;;;;;;5014759;28;20022;-71
2021/03/31 06:32:18;;;;;;;34.50;21.55;;;333.70;2329.60;;;;;;5015782;28;20022;-68
2021/03/31 06:34:52;;;;;;;34.80;19.27;;;333.70;2329.60;;;;;;5013407;28;20034;-69
2021/03/31 06:37:34;;;;;;;35.03;17.92;;;358.60;2304.00;;;;;;5012647;28;20052;-69
2021/03/31 06:40:01;;;;;;;28.65;15.02;;;358.70;2252.80;;;;;;5012976;28;20588;-75
2021/03/31 06:42:43;;;;;;;24.48;14.25;;;359.00;2099.20;;;;;;5013421;28;20087;-71
2021/03/31 06:47:44;;;;;;;23.05;13.85;;;384.00;2048.00;;;;;;5019006;28;20018;-77
2021/03/31 06:50:16;;;;;;;19.13;11.30;;;410.20;1920.00;;;;;;5013294;28;20014;-69
2021/03/31 06:53:03;;;;;;;18.95;11.38;;;460.80;1792.00;;;;;;5015430;28;20168;-71
2021/03/31 06:55:30;;;;;;;19.30;11.02;;;461.20;1638.40;;;;;;5014806;28;20072;-71
2021/03/31 06:57:57;;;;;;;18.65;10.50;;;;;;;;;;5003926;28;20091;-73
2021/03/31 07:00:33;;;;;;;23.75;10.60;;;;;;;;;;5016748;28;20060;-70
2021/03/31 07:03:02;;;;;;;17.42;10.48;;;;;;;;;;5027777;28;20061;-69
2021/03/31 07:05:39;;;;;;;18.20;10.48;;;;;;;;;;5014137;28;20505;-73
2021/03/31 07:08:05;;;;;;;22.05;11.65;;;;;;;;;;5011207;28;20021;-67
2021/03/31 07:10:40;;;;;;;16.23;10.55;;;;;;;;;;5013268;28;20041;-68
2021/03/31 07:13:06;;;;;;;20.73;11.70;;;;;;;;;;5013972;28;20026;-68
2021/03/31 07:15:33;;;;;;;28.85;11.75;;;;;;;;;;5013595;28;20037;-68
2021/03/31 07:18:01;;;;;;;19.15;10.95;;;;;;;;;;5016041;28;20162;-67
2021/03/31 07:20:28;;;;;;;16.20;9.32;;;;;;;;;;5014401;28;20382;-69
2021/03/31 07:22:54;;;;;;;13.38;9.20;;;;;;;;;;5013910;28;20029;-70
2021/03/31 07:25:23;;;;;;;16.50;9.48;;;;;;;;;;5013677;28;20069;-68
2021/03/31 07:27:49;;;;;;;10.38;8.30;;;;;;;;;;5014165;28;20394;-69
2021/03/31 07:30:18;;;;;;;11.95;8.02;;;;;;;;;;5014886;28;20038;-72
2021/03/31 07:32:56;;;;;;;14.63;10.68;;;;;;;;;;5013171;28;20030;-72
2021/03/31 07:35:23;;;;;;;26.42;8.35;;;;;;;;;;4996463;28;20065;-73
2021/03/31 07:37:50;;;;;;;13.25;7.80;;;;;;;;;;5013022;28;20089;-72
2021/03/31 07:40:17;;;;;;;12.60;8.10;;;;;;;;;;5012658;28;20403;-71
2021/03/31 07:42:49;;;;;;;31.67;8.52;;;;;;;;;;5013354;28;20022;-71
2021/03/31 07:45:17;;;;;;;14.32;8.48;;;;;;;;;;5014368;28;20444;-70
2021/03/31 07:47:43;;;;;;;10.98;7.40;;;;;;;;;;5012334;28;20017;-71
2021/03/31 07:50:10;;;;;;;13.52;7.40;;;;;;;;;;5010868;28;20058;-75
2021/03/31 07:52:54;;;;;;;10.32;6.75;;;;;;;;;;4998997;28;20053;-68
2021/03/31 07:55:27;;;;;;;16.10;8.00;;;;;;;;;;5013821;28;20041;-71
2021/03/31 07:58:14;;;;;;;11.70;6.60;;;;;;;;;;5016154;28;20030;-68
2021/03/31 08:00:49;;;;;;;14.10;6.75;;;563.90;1024.00;;;;;;5012136;28;20026;-68
2021/03/31 08:03:20;;;;;;;11.15;6.55;;;563.90;1049.60;;;;;;5018236;28;20033;-74
2021/03/31 08:06:09;;;;;;;11.30;6.43;;;563.70;1024.00;;;;;;5011772;28;20567;-73
2021/03/31 08:08:55;;;;;;;12.20;7.28;;;564.00;1049.60;;;;;;5021747;28;20521;-74
2021/03/31 08:11:36;;;;;;;14.75;7.75;;;564.10;1049.60;;;;;;5014901;28;20055;-68
2021/03/31 08:14:05;;;;;;;13.35;8.60;;;563.70;1075.20;;;;;;5012137;28;20108;-77
2021/03/31 08:16:34;;;;;;;15.77;8.52;;;563.40;1100.80;;;;;;5016093;28;20163;-72
2021/03/31 08:19:03;;;;;;;13.50;8.65;;;563.50;1100.80;;;;;;5012869;28;20376;-72
2021/03/31 08:21:30;;;;;;;24.92;9.13;;;563.30;1100.80;;;;;;5007985;28;20048;-72
2021/03/31 08:23:57;;;;;;;15.45;8.27;;;563.20;1126.40;;;;;;5013358;28;20045;-71
2021/03/31 08:26:32;;;;;;;23.95;13.90;;;538.40;1075.20;;;;;;5011289;28;20049;-74
2021/03/31 08:29:03;;;;;;;15.52;8.98;;;537.70;1126.40;;;;;;5011523;28;20029;-72
2021/03/31 08:31:37;;;;;;;18.00;9.05;;;537.60;1152.00;;;;;;5011285;28;20022;-70
2021/03/31 08:34:03;;;;;;;21.63;9.15;;;;;;;;;;5012016;28;20025;-70
2021/03/31 08:36:29;;;;;;;14.88;8.73;;;512.10;1177.60;;;;;;5010652;28;20057;-73
2021/03/31 08:38:57;;;;;;;16.48;8.25;;;487.20;1177.60;;;;;;5012254;28;20093;-71
2021/03/31 08:41:25;;;;;;;14.25;8.20;;;487.10;1177.60;;;;;;4994674;28;20030;-72
2021/03/31 08:44:09;;;;;;;16.83;8.18;;;487.00;1203.20;;;;;;5010333;28;20033;-78
2021/03/31 08:46:35;;;;;;;19.65;8.95;;;486.80;1331.20;;;;;;5015404;28;20025;-71
2021/03/31 08:49:01;;;;;;;20.25;9.18;;;486.70;1203.20;;;;;;5006280;28;20471;-70
2021/03/31 08:51:27;;;;;;;17.98;8.77;;;;;;;;;;5010450;28;20030;-73
2021/03/31 08:53:59;;;;;;;15.73;8.63;;;486.60;1228.80;;;;;;5011288;28;20128;-73
2021/03/31 08:56:25;;;;;;;15.43;8.70;;;486.40;1254.40;;;;;;5009903;28;20073;-79
2021/03/31 08:58:53;;;;;;;22.83;9.57;;;461.50;1228.80;;;;;;5020394;28;20042;-69
2021/03/31 09:01:31;;;;;;;13.52;9.43;;;461.50;1254.40;;;;;;5011874;28;20018;-78
2021/03/31 09:04:19;;;;;;;16.83;9.25;;;461.40;1228.80;;;;;;5011466;28;20675;-71
2021/03/31 09:06:45;;;;;;;20.50;9.05;;;461.40;1228.80;;;;;;5006158;28;20033;-78
2021/03/31 09:09:12;;;;;;;16.20;8.85;;;461.60;1254.40;;;;;;4997641;28;20112;-75
2021/03/31 09:11:37;;;;;;;19.60;8.93;;;486.50;1228.80;;;;;;5010944;28;20030;-68
2021/03/31 09:14:21;;;;;;;14.73;8.30;;;486.90;1177.60;;;;;;5011596;28;20034;-69
2021/03/31 09:16:49;;;;;;;;;;;487.00;1152.00;;;;;;4999830;28;20034;-69
2021/03/31 09:19:16;;;;;;;14.15;8.52;;;486.90;1152.00;;;;;;5013338;28;19909;-68
2021/03/31 09:21:42;;;;;;;11.55;7.53;;;486.60;1177.60;;;;;;5010566;28;20419;-70
2021/03/31 09:24:13;;;;;;;13.32;7.85;;;486.60;1177.60;;;;;;5011711;28;20463;-70
2021/03/31 09:26:39;;;;;;;13.30;8.05;;;486.40;1177.60;;;;;;5003480;28;20026;-69
2021/03/31 09:29:15;;;;;;;16.55;7.32;;;461.70;1177.60;;;;;;5013547;28;20049;-71
2021/03/31 09:31:42;;;;;;;13.65;8.32;;;486.50;1177.60;;;;;;5010752;28;20026;-74
2021/03/31 09:34:10;;;;;;;14.25;8.63;;;461.50;1203.20;;;;;;5011110;28;20026;-79
2021/03/31 09:36:35;;;;;;;14.38;8.30;;;461.10;1254.40;;;;;;5010598;28;20018;-73
2021/03/31 09:39:01;;;;;;;12.63;7.47;;;461.00;1228.80;;;;;;5011181;28;20045;-79
2021/03/31 09:41:28;;;;;;;14.77;7.78;;;461.00;1228.80;;;;;;5011767;28;20130;-75
2021/03/31 09:43:54;;;;;;;16.50;7.72;;;461.10;1228.80;;;;;;5009892;28;20542;-67
2021/03/31 09:46:24;;;;;;;20.05;8.32;;;461.40;1228.80;;;;;;5014646;28;20026;-68
2021/03/31 09:48:50;;;;;;;17.85;11.43;;;461.60;1228.80;;;;;;5012371;28;20045;-69
2021/03/31 09:51:16;;;;;;;22.95;10.57;;;461.50;1228.80;;;;;;5012071;28;20174;-73
2021/03/31 09:53:43;;;;;;;21.90;10.60;;;461.50;1254.40;;;;;;5028037;28;20114;-74
2021/03/31 09:56:10;;;;;;;16.33;10.30;;;461.50;1254.40;;;;;;5019886;28;20021;-68
2021/03/31 09:58:38;;;;;;;14.98;9.90;;;461.50;1254.40;;;;;;5017491;28;20441;-67
2021/03/31 10:01:04;;;;;;;36.75;10.27;;;461.40;1280.00;;;;;;5017776;28;20486;-74
2021/03/31 10:03:31;;;;;;;14.60;10.13;;;461.20;1280.00;;;;;;5018273;28;20034;-73
2021/03/31 10:05:56;;;;;;;19.85;11.05;;;461.10;1305.60;;;;;;5013677;28;20081;-70
2021/03/31 10:08:23;;;;;;;16.80;9.93;;;461.00;1331.20;;;;;;5021202;28;20021;-69
2021/03/31 10:10:50;;;;;;;17.08;9.68;;;460.80;1305.60;;;;;;5014785;28;20238;-71
2021/03/31 10:13:17;;;;;;;15.43;8.65;;;436.10;1305.60;;;;;;5022240;28;20038;-75
2021/03/31 10:15:47;;;;;;;11.88;8.85;;;436.10;1331.20;;;;;;5026614;28;20085;-67
2021/03/31 10:18:14;;;;;;;15.40;8.50;;;436.10;1305.60;;;;;;5034108;28;20475;-69
2021/03/31 10:20:47;;;;;;;16.40;8.82;;;461.00;1484.80;;;;;;5025676;28;20025;-71
2021/03/31 10:23:23;;;;;;;13.07;8.40;;;460.90;1305.60;;;;;;5018396;28;20113;-74
2021/03/31 10:25:49;;;;;;;14.30;7.93;;;460.80;1305.60;;;;;;5018756;28;20475;-70
2021/03/31 10:28:37;;;;;;;12.82;7.63;;;460.80;1331.20;;;;;;5014526;28;20037;-69
2021/03/31 10:31:42;;;;;;;11.40;7.25;;;436.10;1331.20;;;;;;5020472;28;20479;-74
2021/03/31 10:34:10;;;;;;;12.18;7.20;;;460.90;1408.00;;;;;;4940261;29;20060;-70
2021/03/31 10:50:56;;;;;;;13.13;7.97;;;461.70;1331.20;;;;;;4931107;28;20042;-78
2021/03/31 10:53:18;;;;;;;13.75;7.65;;;461.70;1305.60;;;;;;4938082;28;20149;-78
2021/03/31 10:55:45;;;;;;;10.27;6.88;;;461.40;1331.20;;;;;;4934598;29;20486;-71
2021/03/31 10:58:12;;;;;;;15.32;6.78;;;461.40;1305.60;;;;;;4935608;29;20050;-68
2021/03/31 11:00:38;;;;;;;17.52;7.68;;;461.50;1331.20;;;;;;4940190;29;20024;-66
2021/03/31 11:03:04;;;;;;;10.48;6.95;;;461.40;1331.20;;;;;;4948595;29;20028;-67
2021/03/31 11:05:30;;;;;;;9.88;6.70;;;461.30;1356.80;;;;;;4945661;29;20449;-70
2021/03/31 11:07:56;;;;;;;20.40;6.70;;;461.30;1331.20;;;;;;4939830;29;20043;-67
2021/03/31 11:10:22;;;;;;;11.35;6.80;;;461.40;1356.80;;;;;;4955167;28;20045;-67
2021/03/31 11:12:48;;;;;;;13.20;6.82;;;461.30;1356.80;;;;;;5011486;28;20104;-73
2021/03/31 11:15:16;;;;;;;11.38;6.55;;;461.40;1356.80;;;;;;5013134;28;20152;-69
2021/03/31 11:28:04;;;;;;;12.65;7.63;;;461.10;1356.80;;;;;;5012484;28;20083;-78
2021/03/31 11:30:30;;;;;;;12.05;6.75;;;461.10;1331.20;;;;;;5012283;28;20025;-71
2021/03/31 11:32:55;;;;;;;17.00;7.40;;;461.20;1356.80;;;;;;5012051;28;20500;-70
2021/03/31 11:35:21;;;;;;;27.55;6.32;;;461.30;1356.80;;;;;;5015884;28;20521;-79
2021/03/31 11:37:47;;;;;;;15.10;6.32;;;461.30;1356.80;;;;;;5009897;28;20034;-73
2021/03/31 11:40:13;;;;;;;12.43;7.07;;;461.20;1382.40;;;;;;5010615;28;20045;-73
2021/03/31 11:42:38;;;;;;;12.35;6.97;;;461.20;1331.20;;;;;;5009380;28;20145;-71
2021/03/31 11:45:05;;;;;;;17.00;9.70;;;461.20;1356.80;;;;;;5011259;28;20081;-70
2021/03/31 11:47:30;;;;;;;20.77;6.88;;;461.30;1356.80;;;;;;5011288;28;20033;-80
2021/03/31 11:49:56;;;;;;;15.70;6.20;;;461.40;1356.80;;;;;;5011042;28;20034;-72
2021/03/31 11:52:22;;;;;;;16.67;8.93;;;461.40;1356.80;;;;;;5011833;28;20030;-75
2021/03/31 11:54:47;;;;;;;54.22;7.38;;;461.50;1382.40;;;;;;5005972;28;20069;-69
2021/03/31 11:57:13;;;;;;;11.82;6.18;;;461.60;1356.80;;;;;;5015890;28;20034;-76
2021/03/31 11:59:39;;;;;;;7.20;5.25;;;461.50;1356.80;;;;;;5013373;28;20643;-69
2021/03/31 12:02:05;;;;;;;9.30;4.95;;;461.50;1356.80;;;;;;5011511;28;20025;-69
2021/03/31 12:04:30;;;;;;;7.97;5.30;;;461.50;1382.40;;;;;;5010368;28;20144;-71
2021/03/31 12:06:56;;;;;;;9.63;5.38;;;461.40;1382.40;;;;;;5011281;28;20022;-72
2021/03/31 12:09:23;;;;;;;10.57;5.55;;;461.40;1382.40;;;;;;5002533;28;20054;-72
2021/03/31 12:11:49;;;;;;;9.20;5.40;;;461.50;1382.40;;;;;;4994526;28;20070;-80
2021/03/31 12:14:15;;;;;;;15.65;7.28;;;461.50;1356.80;;;;;;5011659;28;20490;-76
2021/03/31 12:16:40;;;;;;;10.50;5.30;;;461.70;1382.40;;;;;;5011537;28;20101;-79
2021/03/31 12:19:06;;;;;;;9.63;5.32;;;486.50;1356.80;;;;;;5014583;28;20026;-70
2021/03/31 12:21:32;;;;;;;16.27;8.30;;;486.40;1331.20;;;;;;4993121;28;20022;-73
2021/03/31 12:23:57;;;;;;;10.88;6.82;;;486.40;1356.80;;;;;;5011951;28;20475;-72
2021/03/31 12:26:23;;;;;;;9.75;5.80;;;486.50;1356.80;;;;;;5024892;28;20085;-67
2021/03/31 12:28:55;;;;;;;14.07;6.95;;;486.40;1331.20;;;;;;4996259;28;20042;-77
2021/03/31 12:31:21;;;;;;;11.27;5.95;;;486.50;1356.80;;;;;;5015207;28;20025;-79
2021/03/31 12:33:46;;;;;;;21.38;11.10;;;486.60;1459.20;;;;;;5011787;28;20037;-77
2021/03/31 12:36:12;;;;;;;41.33;7.47;;;486.70;1356.80;;;;;;5012725;28;20109;-77
2021/03/31 12:38:38;;;;;;;14.40;6.80;;;486.50;1356.80;;;;;;4998224;28;20122;-79
2021/03/31 12:41:04;;;;;;;20.83;6.88;;;461.40;1433.60;;;;;;5010990;28;20069;-80
2021/03/31 12:43:31;;;;;;;28.48;7.38;;;461.30;1433.60;;;;;;5016209;28;20545;-69
2021/03/31 12:45:57;;;;;;;11.00;6.10;;;460.90;1484.80;;;;;;5026260;28;20022;-75
2021/03/31 12:48:23;;;;;;;11.20;6.75;;;436.10;1408.00;;;;;;5012695;28;20029;-85
2021/03/31 12:50:52;;;;;;;9.75;6.40;;;436.00;1459.20;;;;;;5003427;28;20444;-82
2021/03/31 12:53:22;;;;;;;9.05;5.70;;;436.00;1459.20;;;;;;5013199;28;20053;-77